Terminal Aerodrome Forecast
Issued by NWS

Home | Current Version | Previous Version | Text Only | Print | Product List | Glossary On
Versions: 1 2 3 4 5 6 7
000
FTUS42 KTAE 281700
TAFABY
TAF
KABY 281739Z 2818/2918 24007KT P6SM BKN022
     FM282300 21004KT P6SM OVC015
     FM290400 18003KT 4SM -SHRA BR OVC005
     FM291500 30005KT P6SM VCSH OVC009=

USA.gov is the U.S. government's official web portal to all federal, state and local government web resources and services.